Time;durP1;ratioP1;P1;durP2;ratioP2;P2;SDS_P1;SDS_P2;PMS_P1;PMS_P2;Temp;Humidity;BMP_temperature;BMP_pressure;BME280_temperature;BME280_humidity;BME280_pressure;Samples;Min_cycle;Max_cycle;Signal;HPM_P1;HPM_P2
2022/10/03 00:00:00;;;;;;;1.52;1.25;;;;;;;14.60;66.07;99681.34;7524503;32;40120;-75
2022/10/03 00:04:16;;;;;;;1.70;1.45;;;;;;;14.53;66.87;99683.63;7566937;33;40041;-75
2022/10/03 00:08:53;;;;;;;1.60;1.40;;;;;;;14.28;66.93;99688.44;7561483;33;38670;-75
2022/10/03 00:13:39;;;;;;;1.50;1.40;;;;;;;14.53;66.27;99686.38;7563666;33;37008;-75
2022/10/03 00:18:02;;;;;;;2.12;1.30;;;;;;;14.09;67.33;99684.91;7589530;32;40077;-75
2022/10/03 00:22:31;;;;;;;2.33;1.30;;;;;;;13.79;68.50;99686.16;7586899;32;39958;-75
2022/10/03 00:26:58;;;;;;;3.40;1.48;;;;;;;13.82;68.12;99680.91;7554226;33;38910;-75
2022/10/03 00:31:33;;;;;;;2.35;1.60;;;;;;;13.55;68.43;99691.69;7553115;33;37381;-75
2022/10/03 00:36:01;;;;;;;2.35;1.73;;;;;;;13.61;68.62;99704.22;7578050;33;39115;-75
2022/10/03 00:40:29;;;;;;;1.60;1.40;;;;;;;13.74;67.96;99705.41;7590863;32;39899;-74
2022/10/03 00:45:06;;;;;;;3.30;1.70;;;;;;;13.69;68.01;99711.78;7560957;33;37855;-75
2022/10/03 00:50:04;;;;;;;2.87;1.60;;;;;;;14.00;66.63;99709.41;7554070;33;37799;-75
2022/10/03 00:54:52;;;;;;;3.42;1.95;;;;;;;14.19;66.04;99708.59;7490240;33;39345;-75
2022/10/03 00:59:21;;;;;;;4.10;1.83;;;;;;;14.20;65.40;99715.72;7527267;33;39991;-75
2022/10/03 01:03:49;;;;;;;4.12;1.67;;;;;;;13.64;67.33;99707.19;7578198;33;37348;-75
2022/10/03 01:08:30;;;;;;;3.67;1.73;;;;;;;14.33;64.46;99700.44;7576987;33;36861;-75
2022/10/03 01:13:18;;;;;;;6.12;1.98;;;;;;;13.74;66.29;99711.69;7553323;33;40168;-75
2022/10/03 01:18:07;;;;;;;2.78;1.85;;;;;;;14.09;65.66;99717.81;7554822;33;40765;-75
2022/10/03 01:22:40;;;;;;;2.90;1.77;;;;;;;14.01;65.74;99707.50;7530898;33;37641;-75
2022/10/03 01:26:56;;;;;;;3.60;1.73;;;;;;;14.28;65.39;99707.62;7531037;33;37881;-75
2022/10/03 01:31:16;;;;;;;3.00;1.73;;;;;;;14.12;64.99;99705.41;7569885;33;39625;-75
2022/10/03 01:35:44;;;;;;;6.87;1.85;;;;;;;14.16;64.41;99718.25;7592728;32;39960;-75
2022/10/03 01:40:25;;;;;;;1.60;1.50;;;;;;;14.39;63.53;99713.75;7568456;33;37991;-75
2022/10/03 01:44:57;;;;;;;3.08;1.90;;;;;;;14.16;64.88;99721.00;7556224;33;37024;-75
2022/10/03 01:49:20;;;;;;;4.10;2.28;;;;;;;14.21;63.49;99726.41;7564181;33;40214;-75
2022/10/03 01:53:54;;;;;;;;;;;;;;;14.03;64.22;99735.44;7582120;33;39935;-75
2022/10/03 01:58:13;;;;;;;;;;;;;;;13.81;65.30;99727.78;7580293;33;38332;-75
2022/10/03 02:02:59;;;;;;;4.22;1.90;;;;;;;13.67;65.43;99728.50;7556175;33;37068;-75
2022/10/03 02:07:42;;;;;;;4.35;2.30;;;;;;;13.64;64.97;99723.62;7546224;33;39192;-75
2022/10/03 02:12:13;;;;;;;5.72;2.17;;;;;;;13.89;64.31;99725.19;7578578;33;40687;-75
2022/10/03 02:16:56;;;;;;;6.05;2.25;;;;;;;13.95;64.02;99727.88;7581522;33;38115;-75
2022/10/03 02:21:19;;;;;;;4.43;2.30;;;;;;;14.11;63.34;99726.53;7561353;33;37131;-75
2022/10/03 02:25:49;;;;;;;3.33;1.90;;;;;;;13.95;63.83;99736.09;7555795;33;39975;-75
2022/10/03 02:30:17;;;;;;;4.93;2.33;;;;;;;13.77;64.99;99748.66;7567729;33;39928;-75
2022/10/03 02:35:09;;;;;;;3.12;2.10;;;;;;;13.32;66.69;99744.25;7581241;33;37910;-75
2022/10/03 02:39:46;;;;;;;5.30;1.83;;;;;;;13.25;67.22;99742.97;7572456;33;37054;-75
2022/10/03 02:44:39;;;;;;;6.55;2.37;;;;;;;13.61;66.06;99745.31;7555368;33;40117;-75
2022/10/03 02:49:30;;;;;;;3.50;2.10;;;;;;;13.53;66.25;99753.03;7560357;33;40067;-75
2022/10/03 02:54:04;;;;;;;5.72;2.92;;;;;;;13.22;67.24;99755.28;7558074;33;38030;-75
2022/10/03 02:58:55;;;;;;;6.60;2.80;;;;;;;12.86;68.88;99752.09;7569453;33;36791;-75
2022/10/03 03:03:38;;;;;;;4.50;2.50;;;;;;;12.77;68.79;99765.59;7579111;32;39870;-75
2022/10/03 03:08:18;;;;;;;5.65;2.70;;;;;;;12.86;68.79;99755.66;7569293;33;40848;-75
2022/10/03 03:13:08;;;;;;;3.90;2.42;;;;;;;12.94;68.36;99770.63;7555101;33;37879;-75
2022/10/03 03:18:03;;;;;;;3.58;2.10;;;;;;;12.93;67.99;99753.38;7561217;33;37862;-75
2022/10/03 03:22:50;;;;;;;5.85;2.28;;;;;;;12.95;67.83;99762.16;7529625;33;40106;-75
2022/10/03 03:27:21;;;;;;;3.80;2.40;;;;;;;13.19;67.01;99764.06;7541354;33;42205;-76
2022/10/03 03:31:55;;;;;;;3.53;2.45;;;;;;;12.66;68.35;99770.34;7569687;33;38091;-75
2022/10/03 03:36:21;;;;;;;3.65;2.37;;;;;;;13.41;66.20;99768.28;7565747;33;37541;-75
2022/10/03 03:40:55;;;;;;;7.15;2.47;;;;;;;13.29;66.08;99772.19;7580683;33;39169;-74
2022/10/03 03:45:30;;;;;;;4.53;2.70;;;;;;;12.85;67.75;99764.97;7590692;32;39885;-75
2022/10/03 03:50:14;;;;;;;5.93;2.65;;;;;;;13.33;65.83;99766.97;7558304;33;38182;-75
2022/10/03 03:55:01;;;;;;;6.82;2.75;;;;;;;12.90;66.94;99769.56;7554710;33;37899;-75
2022/10/03 03:59:34;;;;;;;4.57;2.62;;;;;;;13.03;66.45;99768.09;7538108;33;40335;-75
2022/10/03 04:04:04;;;;;;;5.07;3.12;;;;;;;13.37;65.06;99770.78;7553590;33;39939;-75
2022/10/03 04:08:33;;;;;;;5.70;2.83;;;;;;;13.02;66.96;99780.97;7576343;33;37949;-74
2022/10/03 04:13:17;;;;;;;7.68;2.90;;;;;;;13.03;67.00;99779.03;7591118;32;36846;-74
2022/10/03 04:22:35;;;;;;;4.22;2.28;;;;;;;13.24;65.98;99785.94;7588602;32;40678;-74
2022/10/03 04:27:11;;;;;;;7.05;3.00;;;;;;;12.85;67.43;99780.56;7566035;33;38316;-75
2022/10/03 04:31:40;;;;;;;6.78;2.83;;;;;;;12.77;67.95;99798.41;7554870;33;37015;-76
2022/10/03 04:36:11;;;;;;;6.28;3.35;;;;;;;13.13;66.45;99798.09;7553190;33;39325;-75
2022/10/03 04:40:56;;;;;;;5.07;2.80;;;;;;;12.39;68.67;99811.81;7547968;33;210332;-75
2022/10/03 04:45:18;;;;;;;9.70;3.15;;;;;;;12.75;67.49;99806.09;7554080;33;37989;-75
2022/10/03 04:49:46;;;;;;;8.32;3.10;;;;;;;12.12;69.31;99818.50;7554194;33;36973;-75
2022/10/03 04:54:15;;;;;;;6.20;3.30;;;;;;;12.40;68.88;99822.47;7553370;33;39862;-76
2022/10/03 04:58:41;;;;;;;7.60;3.10;;;;;;;12.12;69.49;99813.03;7553785;33;40209;-75
2022/10/03 05:03:25;;;;;;;5.28;3.17;;;;;;;12.03;70.16;99820.22;7552512;33;37882;-75
2022/10/03 05:07:52;;;;;;;9.30;3.33;;;;;;;11.88;70.86;99814.78;7552624;33;37344;-74
2022/10/03 05:12:44;;;;;;;7.80;3.35;;;;;;;11.98;70.32;99818.31;7552553;33;40031;-75
2022/10/03 05:17:07;;;;;;;4.45;2.85;;;;;;;11.50;72.29;99831.56;7513322;33;40814;-75
2022/10/03 05:21:26;;;;;;;6.55;3.33;;;;;;;12.11;70.13;99827.03;7552056;33;38552;-75
2022/10/03 05:26:11;;;;;;;8.05;3.65;;;;;;;11.88;70.75;99829.25;7553265;33;37163;-75
2022/10/03 05:30:56;;;;;;;7.93;2.95;;;;;;;12.45;68.39;99829.00;7552786;33;40656;-74
2022/10/03 05:35:38;;;;;;;5.05;2.80;;;;;;;12.45;68.08;99831.72;7551853;33;40661;-75
2022/10/03 05:40:03;;;;;;;9.68;3.25;;;;;;;11.95;69.30;99839.91;7552927;33;37587;-75
2022/10/03 05:44:30;;;;;;;8.88;3.22;;;;;;;12.69;66.88;99838.12;7551682;33;37023;-75
2022/10/03 05:49:26;;;;;;;8.80;3.65;;;;;;;12.13;67.70;99850.22;7551549;33;39308;-75
2022/10/03 05:54:06;;;;;;;6.40;2.72;;;;;;;12.96;65.58;99839.56;7552463;33;40727;-75
2022/10/03 05:58:36;;;;;;;7.78;2.95;;;;;;;13.19;65.10;99848.13;7551412;33;38481;-75
2022/10/03 06:03:24;;;;;;;9.18;3.20;;;;;;;12.61;65.70;99844.22;7551436;33;37817;-76
2022/10/03 06:08:01;;;;;;;6.40;2.80;;;;;;;12.58;65.93;99861.19;7554966;33;39624;-75
2022/10/03 06:12:37;;;;;;;6.30;2.78;;;;;;;12.36;66.89;99870.59;7555852;33;40280;-74
2022/10/03 06:17:27;;;;;;;5.87;3.05;;;;;;;12.49;67.00;99868.38;7555931;33;37858;-80
2022/10/03 06:22:21;;;;;;;4.87;2.28;;;;;;;13.07;67.08;99867.66;7555784;33;37746;-77
2022/10/03 06:27:16;;;;;;;5.28;2.55;;;;;;;13.53;63.66;99864.53;7555745;33;39322;-74
2022/10/03 06:32:20;;;;;;;3.67;2.30;;;;;;;13.33;62.57;99873.75;7555427;33;40501;-74
2022/10/03 06:36:48;;;;;;;6.72;2.33;;;;;;;12.60;65.50;99886.31;7515233;33;37930;-76
2022/10/03 06:41:25;;;;;;;7.05;2.60;;;;;;;12.77;64.25;99888.69;7555590;33;38089;-77
2022/10/03 06:45:47;;;;;;;6.97;2.47;;;;;;;12.69;65.08;99895.56;7556031;33;39096;-74
2022/10/03 06:50:21;;;;;;;5.57;2.50;;;;;;;13.17;63.60;99889.47;7555414;33;39719;-75
2022/10/03 06:54:49;;;;;;;8.02;2.60;;;;;;;13.37;62.97;99896.72;7555211;33;37739;-74
2022/10/03 06:59:18;;;;;;;6.68;2.70;;;;;;;12.87;65.02;99909.69;7555355;33;37169;-76
2022/10/03 07:03:53;;;;;;;6.18;2.42;;;;;;;12.88;64.89;99903.94;7555141;33;39379;-75
2022/10/03 07:08:27;;;;;;;7.50;2.58;;;;;;;13.11;63.24;99896.09;7555133;33;39963;-74
2022/10/03 07:13:34;;;;;;;5.45;2.30;;;;;;;13.10;63.24;99889.78;7555044;33;38063;-74
2022/10/03 07:18:13;;;;;;;4.45;2.50;;;;;;;13.61;62.23;99901.44;7555056;33;37952;-74
2022/10/03 07:23:07;;;;;;;7.40;2.75;;;;;;;13.65;62.21;99897.00;7555099;33;39757;-74
2022/10/03 07:27:23;;;;;;;7.75;2.60;;;;;;;13.65;61.01;99910.72;7554887;33;39920;-74
2022/10/03 07:31:54;;;;;;;7.65;2.08;;;;;;;13.36;61.21;99914.25;7554685;33;37965;-74
2022/10/03 07:41:20;;;;;;;5.60;2.58;;;;;;;13.71;60.31;99923.22;7554694;33;39817;-74
2022/10/03 07:46:04;;;;;;;14.18;2.28;;;;;;;13.40;61.92;99920.81;7554560;33;40015;-74
2022/10/03 07:50:21;;;;;;;8.63;2.50;;;;;;;13.68;61.67;99923.84;7553355;33;38698;-74
2022/10/03 07:55:01;;;;;;;4.55;2.30;;;;;;;13.86;59.99;99917.59;7554342;33;37033;-75
2022/10/03 07:59:55;;;;;;;5.72;2.22;;;;;;;14.19;59.97;99903.25;7553408;33;39435;-74
2022/10/03 08:04:36;;;;;;;4.45;2.00;;;;;;;14.25;58.30;99922.09;7554457;33;39646;-74
2022/10/03 08:09:10;;;;;;;6.10;2.17;;;;;;;14.63;57.59;99911.22;7554314;33;37622;-74
2022/10/03 08:13:57;;;;;;;6.12;2.03;;;;;;;14.43;58.53;99914.19;7553371;33;37413;-74
2022/10/03 08:18:30;;;;;;;5.37;2.03;;;;;;;14.43;56.86;99911.44;7553064;33;40091;-74
2022/10/03 08:23:05;;;;;;;5.87;1.93;;;;;;;14.58;56.26;99908.53;7553299;33;39908;-74
2022/10/03 08:27:28;;;;;;;5.15;1.70;;;;;;;14.58;55.47;99910.44;7553447;33;38758;-75
2022/10/03 08:32:03;;;;;;;10.88;2.28;;;;;;;14.89;55.32;99923.75;7553233;33;37188;-74
2022/10/03 08:36:53;;;;;;;8.85;1.90;;;;;;;15.07;55.12;99917.41;7553135;33;39098;-76
2022/10/03 08:41:28;;;;;;;5.62;1.77;;;;;;;14.85;54.24;99931.78;7553058;33;39978;-74
2022/10/03 08:45:55;;;;;;;7.97;1.75;;;;;;;14.92;53.38;99923.97;7554009;33;37908;-75
2022/10/03 08:50:15;;;;;;;5.78;2.00;;;;;;;14.98;53.67;99914.53;7554036;33;36819;-75
2022/10/03 08:54:31;;;;;;;4.72;1.70;;;;;;;15.13;55.00;99920.91;7553675;33;39345;-74
2022/10/03 08:59:23;;;;;;;5.03;1.83;;;;;;;14.72;53.71;99910.53;7553626;33;40818;-75
2022/10/03 09:04:16;;;;;;;9.07;2.22;;;;;;;14.70;54.24;99921.00;7536550;33;37830;-74
2022/10/03 09:09:00;;;;;;;6.43;2.22;;;;;;;14.89;54.35;99924.56;7553471;33;37119;-76
2022/10/03 09:14:14;;;;;;;4.40;1.73;;;;;;;14.19;54.88;99926.00;7553766;33;39196;-75
2022/10/03 09:18:40;;;;;;;7.43;2.03;;;;;;;14.39;55.35;99935.09;7473088;33;39884;-74
2022/10/03 09:22:56;;;;;;;5.68;1.92;;;;;;;14.58;54.08;99949.69;7510494;33;37856;-74
2022/10/03 09:27:41;;;;;;;6.65;1.90;;;;;;;14.60;54.82;99936.47;7553299;33;37614;-75
2022/10/03 09:32:02;;;;;;;5.93;1.70;;;;;;;14.84;54.30;99949.34;7553066;33;40087;-77
2022/10/03 09:36:43;;;;;;;4.30;1.77;;;;;;;15.21;53.04;99931.19;7552858;33;40855;-76
2022/10/03 09:41:18;;;;;;;7.55;1.75;;;;;;;14.47;54.05;99942.69;7555987;33;38176;-76
2022/10/03 09:46:15;;;;;;;7.45;1.87;;;;;;;15.19;52.14;99916.97;7556057;33;37364;-75
2022/10/03 09:51:08;;;;;;;4.22;1.75;;;;;;;15.16;52.67;99934.88;7536329;33;40464;-76
2022/10/03 09:55:52;;;;;;;7.57;1.80;;;;;;;15.66;51.42;99922.47;7555938;33;40559;-76
2022/10/03 10:00:26;;;;;;;7.03;1.62;;;;;;;15.90;50.67;99925.09;7555815;33;37862;-75
2022/10/03 10:05:19;;;;;;;3.83;1.50;;;;;;;15.75;49.16;99924.25;7577874;32;37126;-74
2022/10/03 10:09:53;;;;;;;4.78;1.50;;;;;;;15.88;49.86;99924.59;7555856;33;40017;-79
2022/10/03 10:14:51;;;;;;;7.57;2.05;;;;;;;15.60;50.28;99921.75;7555540;33;40295;-75
2022/10/03 10:19:23;;;;;;;3.42;1.48;;;;;;;15.08;51.14;99930.03;7535697;33;37839;-74
2022/10/03 10:24:04;;;;;;;6.53;1.50;;;;;;;15.40;50.71;99926.50;7555676;33;37024;-75
2022/10/03 10:28:37;;;;;;;3.53;1.50;;;;;;;15.10;51.97;99941.53;7555553;33;39550;-75
2022/10/03 10:33:26;;;;;;;6.10;1.80;;;;;;;15.05;52.39;99929.81;7555430;33;40850;-75
2022/10/03 10:38:08;;;;;;;2.17;1.35;;;;;;;15.34;52.00;99924.13;7578715;32;38457;-75
2022/10/03 10:42:45;;;;;;;6.15;1.50;;;;;;;15.42;51.20;99920.72;7555375;33;37052;-76
2022/10/03 10:47:20;;;;;;;3.30;1.65;;;;;;;15.51;52.29;99921.62;7555498;33;39228;-75
2022/10/03 10:52:03;;;;;;;6.78;1.62;;;;;;;15.87;50.61;99917.47;7554706;33;40049;-75
2022/10/03 10:57:08;;;;;;;3.20;1.52;;;;;;;15.44;51.70;99912.16;7555072;33;37847;-75
2022/10/03 11:01:51;;;;;;;4.75;1.35;;;;;;;15.39;52.65;99916.63;7542702;33;37016;-76
2022/10/03 11:07:01;;;;;;;5.03;1.37;;;;;;;15.28;52.06;99893.22;7555176;33;39764;-78
2022/10/03 11:12:02;;;;;;;6.00;1.60;;;;;;;15.27;52.86;99893.50;7534636;33;39839;-76
2022/10/03 11:16:46;;;;;;;6.03;1.23;;;;;;;15.01;54.63;99913.94;7548562;33;37972;-76
2022/10/03 11:21:03;;;;;;;2.08;1.27;;;;;;;15.30;53.62;99920.38;7554961;33;38183;-77
2022/10/03 11:25:29;;;;;;;5.00;1.52;;;;;;;15.36;51.82;99914.47;7555119;33;39687;-77
2022/10/03 11:30:17;;;;;;;4.37;1.60;;;;;;;15.34;52.01;99915.91;7577975;32;39990;-75
2022/10/03 11:35:09;;;;;;;2.83;1.45;;;;;;;15.12;55.45;99933.81;7554817;33;37961;-75
2022/10/03 11:39:31;;;;;;;1.67;1.23;;;;;;;14.92;55.00;99926.72;7554983;33;37786;-75
2022/10/03 11:44:08;;;;;;;4.57;1.60;;;;;;;15.21;54.53;99923.78;7554985;33;40111;-75
2022/10/03 11:48:38;;;;;;;3.95;1.48;;;;;;;15.20;55.57;99935.88;7554787;33;40016;-76
2022/10/03 11:53:25;;;;;;;1.80;1.50;;;;;;;15.28;55.94;99936.31;7554655;33;37987;-76
2022/10/03 11:57:44;;;;;;;2.20;1.40;;;;;;;15.52;54.77;99912.28;7554802;33;37831;-75
2022/10/03 12:02:13;;;;;;;2.37;1.40;;;;;;;15.32;54.70;99934.63;7576090;32;39399;-76
2022/10/03 12:11:35;;;;;;;4.28;1.40;;;;;;;15.77;51.89;99929.47;7554558;33;37933;-75
2022/10/03 12:15:57;;;;;;;2.33;1.30;;;;;;;15.63;51.81;99940.41;7554433;33;37051;-76
2022/10/03 12:20:28;;;;;;;2.95;1.37;;;;;;;15.54;52.08;99936.72;7554298;33;39452;-77
2022/10/03 12:24:45;;;;;;;2.42;1.30;;;;;;;14.98;53.40;99941.97;7575653;32;40007;-76
2022/10/03 12:29:03;;;;;;;2.67;1.35;;;;;;;15.65;50.94;99923.63;7576996;32;37861;-75
2022/10/03 12:33:38;;;;;;;2.25;1.17;;;;;;;15.90;50.61;99919.59;7554120;33;37182;-76
2022/10/03 12:38:05;;;;;;;4.72;1.65;;;;;;;15.86;49.94;99926.81;7554161;33;39871;-75
2022/10/03 12:42:34;;;;;;;3.70;1.37;;;;;;;16.18;50.92;99919.59;7554130;33;39606;-75
2022/10/03 12:47:28;;;;;;;3.22;1.40;;;;;;;15.72;49.86;99918.53;7576431;32;37573;-77
2022/10/03 12:52:15;;;;;;;3.17;1.10;;;;;;;16.28;47.60;99911.13;7553541;33;37612;-76
2022/10/03 12:56:46;;;;;;;5.70;1.35;;;;;;;15.87;48.37;99917.47;7575645;32;40154;-76
2022/10/03 13:01:43;;;;;;;3.22;1.30;;;;;;;15.80;48.16;99915.13;7576195;32;40549;-76
2022/10/03 13:06:19;;;;;;;2.35;1.40;;;;;;;15.91;47.98;99912.97;7553922;33;38471;-76
2022/10/03 13:10:48;;;;;;;3.87;1.35;;;;;;;16.20;48.04;99909.13;7576225;32;37720;-77
2022/10/03 13:15:23;;;;;;;2.65;1.40;;;;;;;15.94;48.84;99917.87;7553073;33;39334;-79
2022/10/03 13:20:01;;;;;;;1.98;1.58;;;;;;;16.03;48.29;99910.53;7553308;33;39897;-77
2022/10/03 13:24:26;;;;;;;2.85;1.40;;;;;;;16.00;48.85;99932.34;7553257;33;37847;-78
2022/10/03 13:28:53;;;;;;;3.95;1.35;;;;;;;15.84;49.28;99926.31;7575752;32;37965;-76
2022/10/03 13:33:20;;;;;;;3.42;1.30;;;;;;;15.96;48.89;99937.63;7575449;32;39853;-77
2022/10/03 13:37:58;;;;;;;5.47;1.50;;;;;;;15.72;48.72;99933.06;7575418;32;39968;-76
2022/10/03 13:42:27;;;;;;;5.53;2.30;;;;;;;16.18;48.95;99925.94;7567967;32;38055;-76
2022/10/03 13:46:52;;;;;;;3.90;1.50;;;;;;;15.89;49.08;99934.47;7552166;33;37176;-76
2022/10/03 13:51:49;;;;;;;1.87;1.30;;;;;;;16.06;48.24;99931.13;7550439;33;39857;-76
2022/10/03 13:56:32;;;;;;;3.97;1.58;;;;;;;15.80;48.91;99922.53;7545898;33;40861;-77
2022/10/03 14:01:10;;;;;;;3.42;1.50;;;;;;;15.94;48.44;99920.62;7538546;33;38359;-76
2022/10/03 14:05:48;;;;;;;2.58;1.23;;;;;;;15.66;48.91;99906.81;7551969;33;37003;-76
2022/10/03 14:10:18;;;;;;;5.45;1.40;;;;;;;16.24;47.99;99908.19;7552089;33;39954;-76
2022/10/03 14:14:40;;;;;;;15.48;1.55;;;;;;;16.19;49.01;99919.28;7551341;33;39991;-76
2022/10/03 14:18:59;;;;;;;2.42;1.52;;;;;;;16.13;49.32;99921.34;7551729;33;37667;-76
2022/10/03 14:23:45;;;;;;;3.08;1.23;;;;;;;16.36;48.40;99924.19;7551271;33;38033;-76
2022/10/03 14:28:12;;;;;;;2.50;1.35;;;;;;;16.12;47.75;99930.69;7554495;33;40692;-75
2022/10/03 14:32:50;;;;;;;2.75;1.23;;;;;;;16.24;47.54;99940.37;7554707;33;39966;-76
2022/10/03 14:37:21;;;;;;;12.65;1.75;;;;;;;16.21;47.18;99930.81;7555556;33;37900;-76
2022/10/03 14:42:10;;;;;;;1.95;1.25;;;;;;;16.32;46.96;99934.97;7553828;33;36791;-76
2022/10/03 14:46:30;;;;;;;2.60;1.30;;;;;;;16.23;47.06;99944.25;7554286;33;39510;-75
2022/10/03 14:50:51;;;;;;;2.00;1.20;;;;;;;15.98;47.43;99960.12;7555378;33;39583;-75
2022/10/03 14:55:17;;;;;;;1.20;1.05;;;;;;;16.17;46.24;99949.03;7553361;33;37632;-77
2022/10/03 14:59:34;;;;;;;2.83;1.40;;;;;;;16.04;47.34;99950.69;7555397;33;36733;-75
2022/10/03 15:04:06;;;;;;;2.65;1.20;;;;;;;15.56;48.37;99940.78;7554152;33;39305;-75
2022/10/03 15:08:25;;;;;;;2.45;1.42;;;;;;;16.00;47.02;99948.84;7554128;33;40945;-76
2022/10/03 15:12:45;;;;;;;4.47;1.60;;;;;;;15.80;48.27;99942.59;7565775;33;38026;-77
2022/10/03 15:17:13;;;;;;;4.07;1.67;;;;;;;15.71;48.62;99942.47;7568987;33;36983;-77
2022/10/03 15:21:30;;;;;;;1.23;1.12;;;;;;;15.60;49.46;99943.75;7569603;33;39877;-77
2022/10/03 15:25:52;;;;;;;2.08;1.25;;;;;;;15.55;48.34;99955.63;7577099;33;39964;-76
2022/10/03 15:30:19;;;;;;;3.73;1.40;;;;;;;15.47;50.09;99952.75;7557558;33;37996;-76
2022/10/03 15:34:39;;;;;;;3.78;1.20;;;;;;;16.03;50.85;99943.53;7589848;32;38287;-76
2022/10/03 15:39:02;;;;;;;2.42;1.30;;;;;;;16.41;48.91;99951.59;7582706;32;39049;-76
2022/10/03 15:44:03;;;;;;;2.13;1.30;;;;;;;16.97;47.28;99946.84;7588128;32;40913;-75
2022/10/03 15:48:21;;;;;;;2.47;1.27;;;;;;;17.73;44.54;99936.97;7473658;33;37877;-77
2022/10/03 15:52:45;;;;;;;1.35;1.12;;;;;;;17.76;44.63;99952.88;7517949;33;37399;-77
2022/10/03 15:57:01;;;;;;;3.10;1.17;;;;;;;17.49;44.50;99965.72;7590110;32;39650;-76
2022/10/03 16:01:25;;;;;;;5.47;1.30;;;;;;;16.41;46.22;99968.09;7586805;32;39886;-79
2022/10/03 16:05:54;;;;;;;3.22;1.50;;;;;;;16.68;46.06;99972.75;7573497;33;37918;-78
2022/10/03 16:10:18;;;;;;;3.85;1.30;;;;;;;16.16;46.68;99991.44;7571861;32;37043;-77
2022/10/03 16:15:03;;;;;;;3.28;1.45;;;;;;;15.65;47.77;99987.63;7554911;33;39869;-78
2022/10/03 16:19:47;;;;;;;6.07;1.60;;;;;;;15.28;49.90;99997.56;7550164;33;39420;-76
2022/10/03 16:24:05;;;;;;;7.60;2.28;;;;;;;15.43;49.51;100001.19;7562150;33;37994;-76
2022/10/03 16:28:28;;;;;;;3.53;1.58;;;;;;;15.29;50.24;100010.19;7586384;32;37022;-76
2022/10/03 16:32:54;;;;;;;4.97;1.77;;;;;;;15.31;49.36;100001.62;7571002;32;40136;-75
2022/10/03 16:37:18;;;;;;;3.20;1.62;;;;;;;15.42;49.58;100007.78;7556960;33;40584;-76
2022/10/03 16:41:42;;;;;;;3.65;1.42;;;;;;;15.40;49.94;100014.41;7562477;33;38547;-75
2022/10/03 16:46:03;;;;;;;2.70;1.77;;;;;;;15.11;49.92;100017.31;7571163;33;37738;-75
2022/10/03 16:50:24;;;;;;;2.50;1.60;;;;;;;15.13;50.67;100017.03;7579962;32;40124;-75
2022/10/03 16:54:42;;;;;;;3.80;1.40;;;;;;;14.92;51.18;100014.56;7559009;33;40008;-78
2022/10/03 16:59:03;;;;;;;2.58;1.30;;;;;;;15.10;50.83;100012.12;7552063;33;37915;-75
2022/10/03 17:03:23;;;;;;;6.90;2.10;;;;;;;15.12;50.46;100018.12;7570197;33;37090;-78
2022/10/03 17:08:00;;;;;;;3.65;2.05;;;;;;;14.74;51.64;100026.31;7557472;33;40803;-77
2022/10/03 17:12:35;;;;;;;3.03;1.70;;;;;;;14.56;52.25;100030.63;7548031;33;40170;-75
2022/10/03 17:17:03;;;;;;;4.37;1.85;;;;;;;14.62;52.37;100027.53;7565211;33;37710;-75
2022/10/03 17:21:25;;;;;;;7.10;1.75;;;;;;;14.84;51.94;100023.44;7562978;33;37294;-75
2022/10/03 17:26:00;;;;;;;4.37;1.85;;;;;;;14.18;53.19;100035.97;7562748;33;40174;-76
2022/10/03 17:30:26;;;;;;;3.80;2.10;;;;;;;14.13;53.28;100042.31;7551323;33;40902;-75
2022/10/03 17:34:52;;;;;;;4.97;2.00;;;;;;;14.51;52.41;100039.72;7573232;33;38127;-75
2022/10/03 17:39:32;;;;;;;2.10;1.50;;;;;;;14.40;52.60;100040.94;7577790;33;37606;-74
2022/10/03 17:44:03;;;;;;;3.83;1.50;;;;;;;13.84;53.82;100043.13;7564440;32;39465;-75
2022/10/03 17:48:31;;;;;;;1.92;1.40;;;;;;;13.76;54.57;100046.47;7562899;33;39582;-76
2022/10/03 17:52:49;;;;;;;2.90;1.80;;;;;;;13.71;55.26;100041.88;7574589;33;38076;-76
2022/10/03 17:57:11;;;;;;;2.90;1.85;;;;;;;13.79;54.72;100043.16;7551044;33;37835;-76
2022/10/03 18:01:54;;;;;;;5.12;1.83;;;;;;;13.56;55.39;100065.84;7554481;33;40206;-76
2022/10/03 18:06:33;;;;;;;3.65;1.95;;;;;;;13.65;55.26;100047.69;7561962;33;40283;-75
2022/10/03 18:10:53;;;;;;;4.68;1.90;;;;;;;13.50;55.83;100062.31;7560292;33;37850;-73
2022/10/03 18:15:51;;;;;;;5.12;1.98;;;;;;;13.95;54.90;100062.22;7592225;32;37886;-73
2022/10/03 18:20:19;;;;;;;3.37;1.80;;;;;;;13.69;55.37;100070.66;7581485;33;40007;-74
2022/10/03 18:24:53;;;;;;;5.18;2.58;;;;;;;13.55;56.19;100064.19;7581423;32;40547;-75
2022/10/03 18:29:55;;;;;;;5.45;1.92;;;;;;;13.81;55.41;100071.09;7554466;33;37700;-75
2022/10/03 18:34:23;;;;;;;4.87;2.00;;;;;;;13.71;55.53;100058.31;7553406;33;37032;-74
2022/10/03 18:38:43;;;;;;;5.87;2.30;;;;;;;13.72;55.47;100059.12;7554468;33;39033;-76
2022/10/03 18:42:59;;;;;;;6.65;2.10;;;;;;;13.32;56.87;100050.09;7555591;33;39934;-74
2022/10/03 18:47:25;;;;;;;5.57;2.30;;;;;;;13.60;56.06;100047.72;7558684;33;37706;-75
2022/10/03 18:51:43;;;;;;;4.50;2.17;;;;;;;13.61;55.92;100047.44;7556858;33;37269;-76
2022/10/03 18:56:08;;;;;;;5.47;2.47;;;;;;;13.83;55.36;100051.63;7554423;33;40197;-74
2022/10/03 19:00:28;;;;;;;4.80;2.70;;;;;;;13.49;56.42;100066.97;7553844;33;39819;-75
2022/10/03 19:04:55;;;;;;;8.63;3.67;;;;;;;13.75;55.58;100063.22;7554782;33;38737;-75
2022/10/03 19:09:27;;;;;;;5.25;2.60;;;;;;;13.58;56.18;100067.19;7552872;33;37497;-76
2022/10/03 19:14:10;;;;;;;4.62;2.60;;;;;;;13.22;57.19;100072.84;7555207;33;39574;-75
2022/10/03 19:18:37;;;;;;;4.82;2.50;;;;;;;13.41;57.03;100069.50;7553521;33;40031;-74
2022/10/03 19:22:58;;;;;;;6.40;2.50;;;;;;;13.55;56.75;100059.53;7554250;33;38814;-75
2022/10/03 19:27:20;;;;;;;12.18;2.90;;;;;;;12.50;60.21;100061.37;7577373;32;37880;-75
2022/10/03 19:31:50;;;;;;;5.72;2.62;;;;;;;13.32;57.75;100050.09;7554020;33;39322;-75
2022/10/03 19:36:10;;;;;;;5.00;2.45;;;;;;;12.68;59.47;100046.31;7564357;33;40011;-74
2022/10/03 19:40:54;;;;;;;5.22;2.50;;;;;;;12.74;59.51;100045.97;7566513;33;37577;-74
2022/10/03 19:45:15;;;;;;;7.30;3.50;;;;;;;12.81;59.46;100055.81;7579931;33;37878;-75
2022/10/03 19:49:53;;;;;;;4.15;2.67;;;;;;;12.57;60.02;100046.34;7578280;33;39234;-76
2022/10/03 19:54:30;;;;;;;6.82;2.83;;;;;;;12.05;62.04;100054.94;7527683;33;41248;-74
2022/10/03 19:58:59;;;;;;;7.05;2.92;;;;;;;12.47;60.91;100051.00;7528332;33;39029;-74
2022/10/03 20:03:31;;;;;;;7.25;3.00;;;;;;;11.60;63.54;100058.16;7556485;33;36930;-74
2022/10/03 20:08:20;;;;;;;9.65;3.50;;;;;;;12.08;62.02;100044.25;7565905;32;40083;-76
2022/10/03 20:12:39;;;;;;;5.75;2.78;;;;;;;11.88;61.96;100050.53;7553871;33;39702;-74
2022/10/03 20:17:12;;;;;;;8.63;2.30;;;;;;;11.81;62.42;100044.53;7563985;33;38057;-74
2022/10/03 20:21:29;;;;;;;6.18;3.00;;;;;;;11.67;62.13;100048.91;7572142;33;37530;-73
2022/10/03 20:25:59;;;;;;;4.82;2.33;;;;;;;12.06;61.56;100045.66;7561243;33;39390;-74
2022/10/03 20:30:44;;;;;;;3.80;2.50;;;;;;;11.80;62.05;100040.16;7552508;33;39758;-75
2022/10/03 20:35:03;;;;;;;8.52;2.75;;;;;;;11.62;62.41;100036.06;7579446;32;37341;-75
2022/10/03 20:39:23;;;;;;;10.05;2.62;;;;;;;11.60;62.32;100039.06;7579180;33;37331;-74
2022/10/03 20:43:42;;;;;;;4.00;2.10;;;;;;;11.53;62.55;100048.62;7578045;32;39457;-75
2022/10/03 20:48:19;;;;;;;5.60;2.17;;;;;;;11.24;63.38;100057.31;7553310;33;39990;-72
2022/10/03 20:52:35;;;;;;;8.23;2.40;;;;;;;11.72;61.87;100051.63;7558718;33;38119;-72
2022/10/03 20:57:02;;;;;;;10.95;2.60;;;;;;;11.76;61.42;100050.00;7555971;33;36964;-74
2022/10/03 21:01:24;;;;;;;7.97;2.85;;;;;;;11.27;62.90;100068.50;7563705;33;39516;-74
2022/10/03 21:05:53;;;;;;;5.57;2.50;;;;;;;11.32;62.77;100066.88;7565172;33;39629;-74
2022/10/03 21:10:19;;;;;;;6.72;2.70;;;;;;;11.51;61.86;100070.72;7563653;33;38716;-73
2022/10/03 21:14:35;;;;;;;8.75;2.70;;;;;;;11.53;61.79;100079.47;7561575;33;37101;-74
2022/10/03 21:18:56;;;;;;;4.00;2.42;;;;;;;10.77;63.45;100096.44;7589810;32;40570;-73
2022/10/03 21:23:34;;;;;;;8.70;2.58;;;;;;;11.25;62.08;100103.44;7569013;33;40801;-75
2022/10/03 21:27:54;;;;;;;6.40;2.45;;;;;;;12.05;60.14;100115.03;7552065;33;38409;-73
2022/10/03 21:32:44;;;;;;;5.57;2.33;;;;;;;11.70;60.63;100108.44;7555037;33;37991;-74
2022/10/03 21:37:26;;;;;;;6.20;2.60;;;;;;;11.58;60.80;100095.84;7581990;33;40096;-73